Terminal Aerodrome Forecast
Issued by NWS

Home | Current Version | Previous Version | Text Only | Print | Product List | Glossary On
Versions: 1 2 3 4 5 6 7 8 9 10 11 12 13 14 15 16 17 18 19 20
000
FTUS41 KOKX 250535
TAFHPN
TAF
KHPN 250535Z 2506/2606 VRB03KT P6SM BKN130
     FM251400 20008KT P6SM SCT130 BKN200
     FM251800 19013G22KT P6SM FEW050 BKN200
     FM260100 20010KT P6SM BKN250
     FM260500 20005KT P6SM BKN250
      AMD NOT SKED=

USA.gov is the U.S. government's official web portal to all federal, state and local government web resources and services.